sensor_id;sensor_type;location;lat;lon;timestamp;pressure;altitude;pressure_sealevel;temperature;humidity
51928;BME280;37953;52.806;18.270;2023-02-26T00:00:13;99605.78;;;2.44;100.00
51928;BME280;37953;52.806;18.270;2023-02-26T00:02:59;99610.03;;;2.44;100.00
51928;BME280;37953;52.806;18.270;2023-02-26T00:05:26;99604.88;;;2.42;100.00
51928;BME280;37953;52.806;18.270;2023-02-26T00:07:51;99616.88;;;2.43;100.00
51928;BME280;37953;52.806;18.270;2023-02-26T00:10:17;99618.53;;;2.43;100.00
51928;BME280;37953;52.806;18.270;2023-02-26T00:12:43;99621.16;;;2.44;100.00
51928;BME280;37953;52.806;18.270;2023-02-26T00:15:10;99623.72;;;2.44;100.00
51928;BME280;37953;52.806;18.270;2023-02-26T00:17:41;99625.41;;;2.44;100.00
51928;BME280;37953;52.806;18.270;2023-02-26T00:20:11;99621.16;;;2.44;100.00
51928;BME280;37953;52.806;18.270;2023-02-26T00:22:38;99632.25;;;2.45;100.00
51928;BME280;37953;52.806;18.270;2023-02-26T00:25:10;99638.22;;;2.44;100.00
51928;BME280;37953;52.806;18.270;2023-02-26T00:27:36;99634.81;;;2.43;100.00
51928;BME280;37953;52.806;18.270;2023-02-26T00:30:06;99636.47;;;2.43;100.00
51928;BME280;37953;52.806;18.270;2023-02-26T00:32:33;99639.91;;;2.42;100.00
51928;BME280;37953;52.806;18.270;2023-02-26T00:34:59;99643.28;;;2.41;100.00
51928;BME280;37953;52.806;18.270;2023-02-26T00:42:35;99665.50;;;2.40;100.00
51928;BME280;37953;52.806;18.270;2023-02-26T00:45:01;99664.63;;;2.40;100.00
51928;BME280;37953;52.806;18.270;2023-02-26T00:47:29;99664.59;;;2.38;100.00
51928;BME280;37953;52.806;18.270;2023-02-26T00:54:55;99670.47;;;2.34;100.00
51928;BME280;37953;52.806;18.270;2023-02-26T00:57:21;99668.75;;;2.35;100.00
51928;BME280;37953;52.806;18.270;2023-02-26T00:59:47;99673.91;;;2.35;100.00
51928;BME280;37953;52.806;18.270;2023-02-26T01:02:13;99673.00;;;2.33;100.00
51928;BME280;37953;52.806;18.270;2023-02-26T01:04:38;99670.41;;;2.31;100.00
51928;BME280;37953;52.806;18.270;2023-02-26T01:07:04;99672.13;;;2.32;100.00
51928;BME280;37953;52.806;18.270;2023-02-26T01:09:34;99676.41;;;2.32;100.00
51928;BME280;37953;52.806;18.270;2023-02-26T01:12:10;99680.56;;;2.28;100.00
51928;BME280;37953;52.806;18.270;2023-02-26T01:14:45;99684.88;;;2.29;100.00
51928;BME280;37953;52.806;18.270;2023-02-26T01:17:26;99685.69;;;2.28;100.00
51928;BME280;37953;52.806;18.270;2023-02-26T01:24:49;99694.25;;;2.27;100.00
51928;BME280;37953;52.806;18.270;2023-02-26T01:27:18;99696.84;;;2.29;100.00
51928;BME280;37953;52.806;18.270;2023-02-26T01:29:44;99694.25;;;2.27;100.00
51928;BME280;37953;52.806;18.270;2023-02-26T01:32:22;99704.50;;;2.27;100.00
51928;BME280;37953;52.806;18.270;2023-02-26T01:37:28;99721.59;;;2.28;100.00
51928;BME280;37953;52.806;18.270;2023-02-26T01:40:02;99717.31;;;2.27;100.00
51928;BME280;37953;52.806;18.270;2023-02-26T01:42:32;99720.72;;;2.28;100.00
51928;BME280;37953;52.806;18.270;2023-02-26T01:45:04;99716.44;;;2.27;100.00
51928;BME280;37953;52.806;18.270;2023-02-26T01:55:12;99723.19;;;2.23;100.00
51928;BME280;37953;52.806;18.270;2023-02-26T01:57:38;99733.44;;;2.23;100.00
51928;BME280;37953;52.806;18.270;2023-02-26T02:00:04;99741.97;;;2.23;100.00
51928;BME280;37953;52.806;18.270;2023-02-26T02:02:39;99743.59;;;2.20;100.00
51928;BME280;37953;52.806;18.270;2023-02-26T02:05:16;99751.25;;;2.18;100.00
51928;BME280;37953;52.806;18.270;2023-02-26T02:07:43;99755.47;;;2.16;100.00
51928;BME280;37953;52.806;18.270;2023-02-26T02:10:08;99754.59;;;2.16;100.00
51928;BME280;37953;52.806;18.270;2023-02-26T02:12:47;99764.84;;;2.16;100.00
51928;BME280;37953;52.806;18.270;2023-02-26T02:23:25;99778.38;;;2.10;100.00
51928;BME280;37953;52.806;18.270;2023-02-26T02:25:54;99787.78;;;2.10;100.00
51928;BME280;37953;52.806;18.270;2023-02-26T02:33:55;99794.50;;;2.06;100.00
51928;BME280;37953;52.806;18.270;2023-02-26T02:38:55;99797.91;;;2.07;100.00
51928;BME280;37953;52.806;18.270;2023-02-26T02:41:24;99795.34;;;2.07;100.00
51928;BME280;37953;52.806;18.270;2023-02-26T02:43:51;99794.44;;;2.04;100.00
51928;BME280;37953;52.806;18.270;2023-02-26T02:46:19;99798.72;;;2.04;100.00
51928;BME280;37953;52.806;18.270;2023-02-26T02:48:48;99807.22;;;2.03;100.00
51928;BME280;37953;52.806;18.270;2023-02-26T02:51:17;99808.00;;;2.00;100.00
51928;BME280;37953;52.806;18.270;2023-02-26T02:53:49;99813.06;;;1.99;100.00
51928;BME280;37953;52.806;18.270;2023-02-26T02:56:26;99826.72;;;1.98;100.00
51928;BME280;37953;52.806;18.270;2023-02-26T02:59:15;99826.69;;;1.96;100.00
51928;BME280;37953;52.806;18.270;2023-02-26T03:01:42;99824.09;;;1.95;100.00
51928;BME280;37953;52.806;18.270;2023-02-26T03:04:12;99830.88;;;1.93;100.00
51928;BME280;37953;52.806;18.270;2023-02-26T03:06:39;99841.88;;;1.90;100.00
51928;BME280;37953;52.806;18.270;2023-02-26T03:09:06;99855.53;;;1.89;100.00
51928;BME280;37953;52.806;18.270;2023-02-26T03:11:32;99850.41;;;1.89;100.00
51928;BME280;37953;52.806;18.270;2023-02-26T03:13:58;99858.94;;;1.90;100.00
51928;BME280;37953;52.806;18.270;2023-02-26T03:26:57;99875.22;;;1.92;100.00
51928;BME280;37953;52.806;18.270;2023-02-26T03:31:54;99888.09;;;1.93;100.00
51928;BME280;37953;52.806;18.270;2023-02-26T03:34:55;99892.38;;;1.94;100.00
51928;BME280;37953;52.806;18.270;2023-02-26T03:37:16;99899.19;;;1.94;100.00
51928;BME280;37953;52.806;18.270;2023-02-26T03:40:00;99896.69;;;1.95;100.00
51928;BME280;37953;52.806;18.270;2023-02-26T03:42:43;99893.22;;;1.93;100.00
51928;BME280;37953;52.806;18.270;2023-02-26T03:45:15;99908.56;;;1.93;100.00
51928;BME280;37953;52.806;18.270;2023-02-26T03:47:43;99908.56;;;1.93;100.00
51928;BME280;37953;52.806;18.270;2023-02-26T03:50:17;99908.56;;;1.93;100.00
51928;BME280;37953;52.806;18.270;2023-02-26T03:52:46;99920.53;;;1.94;100.00
51928;BME280;37953;52.806;18.270;2023-02-26T03:55:21;99924.81;;;1.94;100.00
51928;BME280;37953;52.806;18.270;2023-02-26T03:57:59;99933.34;;;1.94;100.00
51928;BME280;37953;52.806;18.270;2023-02-26T04:00:25;99929.13;;;1.95;100.00
51928;BME280;37953;52.806;18.270;2023-02-26T04:05:18;99932.50;;;1.94;100.00
51928;BME280;37953;52.806;18.270;2023-02-26T04:07:45;99935.91;;;1.94;100.00
51928;BME280;37953;52.806;18.270;2023-02-26T04:10:13;99939.31;;;1.93;100.00
51928;BME280;37953;52.806;18.270;2023-02-26T04:12:41;99949.56;;;1.93;100.00
51928;BME280;37953;52.806;18.270;2023-02-26T04:15:07;99951.28;;;1.94;100.00
51928;BME280;37953;52.806;18.270;2023-02-26T04:17:33;99965.78;;;1.94;100.00
51928;BME280;37953;52.806;18.270;2023-02-26T04:19:59;99972.63;;;1.93;100.00
51928;BME280;37953;52.806;18.270;2023-02-26T04:22:25;99972.56;;;1.92;100.00
51928;BME280;37953;52.806;18.270;2023-02-26T04:24:51;99972.56;;;1.92;100.00
51928;BME280;37953;52.806;18.270;2023-02-26T04:27:16;99977.69;;;1.92;100.00
51928;BME280;37953;52.806;18.270;2023-02-26T04:29:42;99976.81;;;1.91;100.00
51928;BME280;37953;52.806;18.270;2023-02-26T04:32:08;99978.53;;;1.92;100.00
51928;BME280;37953;52.806;18.270;2023-02-26T04:34:34;99988.78;;;1.92;100.00
51928;BME280;37953;52.806;18.270;2023-02-26T04:36:59;99999.03;;;1.92;100.00
51928;BME280;37953;52.806;18.270;2023-02-26T04:39:25;99994.81;;;1.93;100.00
51928;BME280;37953;52.806;18.270;2023-02-26T04:41:53;99999.94;;;1.93;100.00
51928;BME280;37953;52.806;18.270;2023-02-26T04:44:19;99999.03;;;1.92;100.00
51928;BME280;37953;52.806;18.270;2023-02-26T04:46:45;99991.31;;;1.91;100.00
51928;BME280;37953;52.806;18.270;2023-02-26T04:49:11;99991.28;;;1.89;100.00
51928;BME280;37953;52.806;18.270;2023-02-26T04:51:37;99999.81;;;1.90;100.00
51928;BME280;37953;52.806;18.270;2023-02-26T04:54:02;99994.69;;;1.90;100.00
51928;BME280;37953;52.806;18.270;2023-02-26T04:56:28;100006.63;;;1.89;100.00
51928;BME280;37953;52.806;18.270;2023-02-26T04:58:54;100004.06;;;1.89;100.00
51928;BME280;37953;52.806;18.270;2023-02-26T05:01:20;100008.28;;;1.87;100.00
51928;BME280;37953;52.806;18.270;2023-02-26T05:03:46;100010.91;;;1.89;100.00
51928;BME280;37953;52.806;18.270;2023-02-26T05:06:11;100016.03;;;1.89;100.00
51928;BME280;37953;52.806;18.270;2023-02-26T05:08:40;100024.56;;;1.89;100.00
51928;BME280;37953;52.806;18.270;2023-02-26T05:11:10;100020.31;;;1.90;100.00
51928;BME280;37953;52.806;18.270;2023-02-26T05:13:36;100026.28;;;1.90;100.00
51928;BME280;37953;52.806;18.270;2023-02-26T05:16:02;100035.69;;;1.90;100.00
51928;BME280;37953;52.806;18.270;2023-02-26T05:18:28;100032.25;;;1.89;100.00
51928;BME280;37953;52.806;18.270;2023-02-26T05:20:54;100050.19;;;1.89;100.00
51928;BME280;37953;52.806;18.270;2023-02-26T05:23:21;100049.31;;;1.89;100.00
51928;BME280;37953;52.806;18.270;2023-02-26T05:25:46;100049.31;;;1.89;100.00
51928;BME280;37953;52.806;18.270;2023-02-26T05:28:13;100050.13;;;1.88;100.00
51928;BME280;37953;52.806;18.270;2023-02-26T05:30:39;100062.13;;;1.89;100.00
51928;BME280;37953;52.806;18.270;2023-02-26T05:33:04;100062.06;;;1.87;100.00
51928;BME280;37953;52.806;18.270;2023-02-26T05:35:30;100068.91;;;1.87;100.00
51928;BME280;37953;52.806;18.270;2023-02-26T05:37:56;100065.44;;;1.86;100.00
51928;BME280;37953;52.806;18.270;2023-02-26T05:40:22;100077.44;;;1.87;100.00
51928;BME280;37953;52.806;18.270;2023-02-26T05:42:48;100084.25;;;1.87;100.00
51928;BME280;37953;52.806;18.270;2023-02-26T05:45:14;100085.06;;;1.86;100.00
51928;BME280;37953;52.806;18.270;2023-02-26T05:47:40;100089.31;;;1.85;100.00
51928;BME280;37953;52.806;18.270;2023-02-26T05:50:06;100099.56;;;1.85;100.00
51928;BME280;37953;52.806;18.270;2023-02-26T05:52:32;100104.69;;;1.85;100.00
51928;BME280;37953;52.806;18.270;2023-02-26T05:54:58;100110.69;;;1.86;100.00
51928;BME280;37953;52.806;18.270;2023-02-26T05:57:23;100112.38;;;1.85;100.00
51928;BME280;37953;52.806;18.270;2023-02-26T05:59:49;100126.03;;;1.86;100.00
51928;BME280;37953;52.806;18.270;2023-02-26T06:02:15;100132.03;;;1.86;100.00
51928;BME280;37953;52.806;18.270;2023-02-26T06:04:41;100139.72;;;1.86;100.00
51928;BME280;37953;52.806;18.270;2023-02-26T06:07:07;100127.81;;;1.87;100.00
51928;BME280;37953;52.806;18.270;2023-02-26T06:09:33;100138.06;;;1.87;100.00
51928;BME280;37953;52.806;18.270;2023-02-26T06:11:59;100139.72;;;1.86;100.00
51928;BME280;37953;52.806;18.270;2023-02-26T06:14:24;100144.84;;;1.86;100.00
51928;BME280;37953;52.806;18.270;2023-02-26T06:16:50;100146.53;;;1.86;100.00
51928;BME280;37953;52.806;18.270;2023-02-26T06:19:19;100154.22;;;1.86;100.00
51928;BME280;37953;52.806;18.270;2023-02-26T06:21:46;100151.72;;;1.87;100.00
51928;BME280;37953;52.806;18.270;2023-02-26T06:24:12;100159.41;;;1.87;100.00
51928;BME280;37953;52.806;18.270;2023-02-26T06:26:38;100164.59;;;1.89;100.00
51928;BME280;37953;52.806;18.270;2023-02-26T06:29:03;100171.38;;;1.88;100.00
51928;BME280;37953;52.806;18.270;2023-02-26T06:31:29;100172.28;;;1.89;100.00
51928;BME280;37953;52.806;18.270;2023-02-26T06:33:55;100176.50;;;1.88;100.00
51928;BME280;37953;52.806;18.270;2023-02-26T06:36:21;100179.94;;;1.89;100.00
51928;BME280;37953;52.806;18.270;2023-02-26T06:38:46;100179.94;;;1.89;100.00
51928;BME280;37953;52.806;18.270;2023-02-26T06:41:12;100187.66;;;1.90;100.00
51928;BME280;37953;52.806;18.270;2023-02-26T06:43:38;100189.41;;;1.91;100.00
51928;BME280;37953;52.806;18.270;2023-02-26T06:46:04;100198.84;;;1.92;100.00
51928;BME280;37953;52.806;18.270;2023-02-26T06:48:30;100199.72;;;1.93;100.00
51928;BME280;37953;52.806;18.270;2023-02-26T06:50:56;100198.88;;;1.94;100.00
51928;BME280;37953;52.806;18.270;2023-02-26T06:53:22;100192.97;;;1.95;100.00
51928;BME280;37953;52.806;18.270;2023-02-26T06:55:49;100203.25;;;1.96;100.00
51928;BME280;37953;52.806;18.270;2023-02-26T06:58:15;100206.69;;;1.97;100.00
51928;BME280;37953;52.806;18.270;2023-02-26T07:00:41;100208.41;;;1.98;100.00
51928;BME280;37953;52.806;18.270;2023-02-26T07:03:11;100219.50;;;1.97;100.00
51928;BME280;37953;52.806;18.270;2023-02-26T07:05:37;100219.50;;;1.97;100.00
51928;BME280;37953;52.806;18.270;2023-02-26T07:08:03;100226.28;;;1.96;100.00
51928;BME280;37953;52.806;18.270;2023-02-26T07:10:31;100239.09;;;1.96;100.00
51928;BME280;37953;52.806;18.270;2023-02-26T07:12:56;100233.19;;;1.97;100.00
51928;BME280;37953;52.806;18.270;2023-02-26T07:15:22;100240.03;;;1.98;100.00
51928;BME280;37953;52.806;18.270;2023-02-26T07:17:48;100243.56;;;2.02;100.00
51928;BME280;37953;52.806;18.270;2023-02-26T07:20:14;100245.34;;;2.04;100.00
51928;BME280;37953;52.806;18.270;2023-02-26T07:22:40;100259.09;;;2.07;100.00
51928;BME280;37953;52.806;18.270;2023-02-26T07:25:06;100260.94;;;2.11;100.00
51928;BME280;37953;52.806;18.270;2023-02-26T07:27:32;100261.88;;;2.13;100.00
51928;BME280;37953;52.806;18.270;2023-02-26T07:29:59;100272.19;;;2.16;100.00
51928;BME280;37953;52.806;18.270;2023-02-26T07:32:24;100279.09;;;2.17;100.00
51928;BME280;37953;52.806;18.270;2023-02-26T07:34:50;100286.06;;;2.21;100.00
51928;BME280;37953;52.806;18.270;2023-02-26T07:37:16;100284.41;;;2.23;100.00
51928;BME280;37953;52.806;18.270;2023-02-26T07:39:44;100291.41;;;2.27;100.00
51928;BME280;37953;52.806;18.270;2023-02-26T07:42:09;100285.56;;;2.31;100.00
51928;BME280;37953;52.806;18.270;2023-02-26T07:44:35;100301.03;;;2.34;100.00
51928;BME280;37953;52.806;18.270;2023-02-26T07:47:01;100297.75;;;2.38;100.00
51928;BME280;37953;52.806;18.270;2023-02-26T07:49:27;100294.41;;;2.41;100.00
51928;BME280;37953;52.806;18.270;2023-02-26T07:51:53;100294.47;;;2.42;100.00
51928;BME280;37953;52.806;18.270;2023-02-26T07:54:19;100303.94;;;2.45;100.00
51928;BME280;37953;52.806;18.270;2023-02-26T07:56:44;100306.63;;;2.48;100.00
51928;BME280;37953;52.806;18.270;2023-02-26T07:59:10;100315.16;;;2.49;100.00
51928;BME280;37953;52.806;18.270;2023-02-26T08:01:36;100316.91;;;2.50;100.00
51928;BME280;37953;52.806;18.270;2023-02-26T08:04:02;100316.03;;;2.49;100.00
51928;BME280;37953;52.806;18.270;2023-02-26T08:06:28;100322.91;;;2.50;100.00
51928;BME280;37953;52.806;18.270;2023-02-26T08:08:54;100321.28;;;2.52;100.00
51928;BME280;37953;52.806;18.270;2023-02-26T08:11:20;100311.88;;;2.53;100.00
51928;BME280;37953;52.806;18.270;2023-02-26T08:13:46;100317.06;;;2.54;100.00
51928;BME280;37953;52.806;18.270;2023-02-26T08:16:12;100322.22;;;2.56;100.00
51928;BME280;37953;52.806;18.270;2023-02-26T08:18:38;100339.38;;;2.57;100.00
51928;BME280;37953;52.806;18.270;2023-02-26T08:21:03;100347.13;;;2.58;100.00
51928;BME280;37953;52.806;18.270;2023-02-26T08:23:29;100349.72;;;2.60;100.00
51928;BME280;37953;52.806;18.270;2023-02-26T08:25:59;100358.34;;;2.62;100.00
51928;BME280;37953;52.806;18.270;2023-02-26T08:28:30;100362.66;;;2.63;100.00
51928;BME280;37953;52.806;18.270;2023-02-26T08:30:57;100365.22;;;2.63;100.00
51928;BME280;37953;52.806;18.270;2023-02-26T08:33:23;100372.94;;;2.64;100.00
51928;BME280;37953;52.806;18.270;2023-02-26T08:35:50;100376.34;;;2.63;100.00
51928;BME280;37953;52.806;18.270;2023-02-26T08:38:16;100381.47;;;2.63;100.00
51928;BME280;37953;52.806;18.270;2023-02-26T08:40:42;100378.06;;;2.63;100.00
51928;BME280;37953;52.806;18.270;2023-02-26T08:43:08;100384.03;;;2.63;100.00
51928;BME280;37953;52.806;18.270;2023-02-26T08:45:36;100391.69;;;2.62;100.00
51928;BME280;37953;52.806;18.270;2023-02-26T08:48:02;100390.00;;;2.62;100.00
51928;BME280;37953;52.806;18.270;2023-02-26T08:50:28;100393.47;;;2.64;100.00
51928;BME280;37953;52.806;18.270;2023-02-26T08:52:54;100398.66;;;2.66;100.00
51928;BME280;37953;52.806;18.270;2023-02-26T08:55:20;100404.72;;;2.68;100.00
51928;BME280;37953;52.806;18.270;2023-02-26T08:57:46;100405.63;;;2.70;100.00
51928;BME280;37953;52.806;18.270;2023-02-26T09:00:11;100412.56;;;2.73;100.00
51928;BME280;37953;52.806;18.270;2023-02-26T09:02:41;100416.88;;;2.74;100.00
51928;BME280;37953;52.806;18.270;2023-02-26T09:05:07;100423.72;;;2.73;100.00
51928;BME280;37953;52.806;18.270;2023-02-26T09:07:33;100424.63;;;2.75;100.00
51928;BME280;37953;52.806;18.270;2023-02-26T09:09:58;100432.31;;;2.75;100.00
51928;BME280;37953;52.806;18.270;2023-02-26T09:12:24;100434.00;;;2.75;100.00
51928;BME280;37953;52.806;18.270;2023-02-26T09:14:50;100443.41;;;2.74;100.00
51928;BME280;37953;52.806;18.270;2023-02-26T09:17:16;100447.59;;;2.72;100.00
51928;BME280;37953;52.806;18.270;2023-02-26T09:19:42;100445.03;;;2.72;100.00
51928;BME280;37953;52.806;18.270;2023-02-26T09:22:08;100454.38;;;2.70;100.00
51928;BME280;37953;52.806;18.270;2023-02-26T09:24:34;100463.75;;;2.70;100.00
51928;BME280;37953;52.806;18.270;2023-02-26T09:27:00;100463.75;;;2.70;100.00
51928;BME280;37953;52.806;18.270;2023-02-26T09:29:27;100473.09;;;2.68;100.00
51928;BME280;37953;52.806;18.270;2023-02-26T09:31:54;100476.53;;;2.68;100.00
51928;BME280;37953;52.806;18.270;2023-02-26T09:34:19;100480.84;;;2.69;100.00
51928;BME280;37953;52.806;18.270;2023-02-26T09:36:45;100486.00;;;2.71;100.00
51928;BME280;37953;52.806;18.270;2023-02-26T09:39:11;100489.50;;;2.73;100.00
51928;BME280;37953;52.806;18.270;2023-02-26T09:41:39;100492.13;;;2.74;100.00
51928;BME280;37953;52.806;18.270;2023-02-26T09:44:07;100498.13;;;2.75;100.00
51928;BME280;37953;52.806;18.270;2023-02-26T09:46:45;100506.72;;;2.75;100.00
51928;BME280;37953;52.806;18.270;2023-02-26T09:49:19;100511.00;;;2.76;100.00
51928;BME280;37953;52.806;18.270;2023-02-26T09:54:39;100522.19;;;2.78;100.00
51928;BME280;37953;52.806;18.270;2023-02-26T09:57:08;100524.81;;;2.80;100.00
51928;BME280;37953;52.806;18.270;2023-02-26T09:59:36;100524.00;;;2.81;100.00
51928;BME280;37953;52.806;18.270;2023-02-26T10:04:50;100534.38;;;2.84;100.00
51928;BME280;37953;52.806;18.270;2023-02-26T10:07:22;100543.00;;;2.86;100.00
51928;BME280;37953;52.806;18.270;2023-02-26T10:10:02;100550.72;;;2.88;100.00
51928;BME280;37953;52.806;18.270;2023-02-26T10:12:30;100543.97;;;2.90;100.00
51928;BME280;37953;52.806;18.270;2023-02-26T10:20:30;100566.47;;;2.97;100.00
51928;BME280;37953;52.806;18.270;2023-02-26T10:23:06;100570.06;;;3.02;100.00
51928;BME280;37953;52.806;18.270;2023-02-26T10:25:41;100567.78;;;3.10;100.00
51928;BME280;37953;52.806;18.270;2023-02-26T10:30:41;100574.06;;;3.19;100.00
51928;BME280;37953;52.806;18.270;2023-02-26T10:35:56;100573.69;;;3.33;100.00
51928;BME280;37953;52.806;18.270;2023-02-26T10:38:24;100584.19;;;3.40;100.00
51928;BME280;37953;52.806;18.270;2023-02-26T10:43:26;100587.91;;;3.49;100.00
51928;BME280;37953;52.806;18.270;2023-02-26T10:51:35;100607.22;;;3.63;100.00
51928;BME280;37953;52.806;18.270;2023-02-26T10:54:03;100612.44;;;3.66;100.00
51928;BME280;37953;52.806;18.270;2023-02-26T10:56:31;100614.22;;;3.67;100.00
51928;BME280;37953;52.806;18.270;2023-02-26T10:59:03;100622.72;;;3.66;100.00
51928;BME280;37953;52.806;18.270;2023-02-26T11:01:29;100620.16;;;3.66;100.00
51928;BME280;37953;52.806;18.270;2023-02-26T11:03:59;100623.63;;;3.66;100.00
51928;BME280;37953;52.806;18.270;2023-02-26T11:06:48;100630.53;;;3.69;100.00
51928;BME280;37953;52.806;18.270;2023-02-26T11:09:31;100626.22;;;3.68;100.00
51928;BME280;37953;52.806;18.270;2023-02-26T11:12:05;100627.97;;;3.69;100.00
51928;BME280;37953;52.806;18.270;2023-02-26T11:14:32;100628.75;;;3.66;100.00
51928;BME280;37953;52.806;18.270;2023-02-26T11:16:59;100632.25;;;3.69;100.00
51928;BME280;37953;52.806;18.270;2023-02-26T11:19:34;100648.59;;;3.71;100.00
51928;BME280;37953;52.806;18.270;2023-02-26T11:22:00;100639.25;;;3.73;100.00
51928;BME280;37953;52.806;18.270;2023-02-26T11:26:53;100641.03;;;3.75;100.00
51928;BME280;37953;52.806;18.270;2023-02-26T11:29:20;100653.09;;;3.78;100.00
51928;BME280;37953;52.806;18.270;2023-02-26T11:31:47;100648.81;;;3.78;100.00
51928;BME280;37953;52.806;18.270;2023-02-26T11:34:13;100653.16;;;3.79;100.00
51928;BME280;37953;52.806;18.270;2023-02-26T11:36:40;100648.03;;;3.81;100.00
51928;BME280;37953;52.806;18.270;2023-02-26T11:39:09;100656.78;;;3.86;100.00
51928;BME280;37953;52.806;18.270;2023-02-26T11:41:38;100650.16;;;3.93;100.00
51928;BME280;37953;52.806;18.270;2023-02-26T11:44:12;100659.00;;;4.01;100.00
51928;BME280;37953;52.806;18.270;2023-02-26T11:46:42;100659.25;;;4.08;100.00
51928;BME280;37953;52.806;18.270;2023-02-26T11:49:10;100661.13;;;4.14;100.00
51928;BME280;37953;52.806;18.270;2023-02-26T11:51:38;100664.72;;;4.19;100.00
51928;BME280;37953;52.806;18.270;2023-02-26T11:54:09;100661.38;;;4.22;100.00
51928;BME280;37953;52.806;18.270;2023-02-26T11:56:47;100669.22;;;4.26;100.00
51928;BME280;37953;52.806;18.270;2023-02-26T11:59:22;100669.28;;;4.28;100.00
51928;BME280;37953;52.806;18.270;2023-02-26T12:01:48;100665.94;;;4.31;100.00
51928;BME280;37953;52.806;18.270;2023-02-26T12:04:18;100672.78;;;4.30;100.00
51928;BME280;37953;52.806;18.270;2023-02-26T12:06:45;100675.34;;;4.30;100.00
51928;BME280;37953;52.806;18.270;2023-02-26T12:09:16;100683.88;;;4.29;100.00
51928;BME280;37953;52.806;18.270;2023-02-26T12:11:50;100685.53;;;4.27;100.00
51928;BME280;37953;52.806;18.270;2023-02-26T12:21:58;100703.97;;;4.14;100.00
51928;BME280;37953;52.806;18.270;2023-02-26T13:14:37;100754.53;;;4.13;100.00
51928;BME280;37953;52.806;18.270;2023-02-26T13:17:20;100762.22;;;4.13;100.00
51928;BME280;37953;52.806;18.270;2023-02-26T13:19:58;100761.41;;;4.14;100.00
51928;BME280;37953;52.806;18.270;2023-02-26T13:25:00;100762.31;;;4.16;99.87
51928;BME280;37953;52.806;18.270;2023-02-26T13:27:28;100759.75;;;4.16;98.26
51928;BME280;37953;52.806;18.270;2023-02-26T13:29:59;100771.81;;;4.17;98.12
51928;BME280;37953;52.806;18.270;2023-02-26T13:32:27;100769.22;;;4.17;98.89
51928;BME280;37953;52.806;18.270;2023-02-26T13:34:55;100776.94;;;4.17;99.39
51928;BME280;37953;52.806;18.270;2023-02-26T13:37:30;100781.19;;;4.17;99.05
51928;BME280;37953;52.806;18.270;2023-02-26T13:40:40;100771.75;;;4.16;98.46
51928;BME280;37953;52.806;18.270;2023-02-26T13:42:47;100783.72;;;4.15;99.16
51928;BME280;37953;52.806;18.270;2023-02-26T13:58:40;100788.91;;;4.17;96.79
51928;BME280;37953;52.806;18.270;2023-02-26T14:01:13;100788.91;;;4.17;95.46
51928;BME280;37953;52.806;18.270;2023-02-26T14:09:04;100802.75;;;4.20;94.05
51928;BME280;37953;52.806;18.270;2023-02-26T14:11:37;100798.44;;;4.19;92.98
51928;BME280;37953;52.806;18.270;2023-02-26T14:14:40;100800.13;;;4.19;91.75
51928;BME280;37953;52.806;18.270;2023-02-26T14:32:29;100815.66;;;4.22;99.25
51928;BME280;37953;52.806;18.270;2023-02-26T14:34:55;100809.59;;;4.20;99.80
51928;BME280;37953;52.806;18.270;2023-02-26T14:37:24;100819.88;;;4.20;100.00
51928;BME280;37953;52.806;18.270;2023-02-26T14:40:00;100812.97;;;4.19;100.00
51928;BME280;37953;52.806;18.270;2023-02-26T14:42:34;100820.69;;;4.19;100.00
51928;BME280;37953;52.806;18.270;2023-02-26T14:45:17;100829.22;;;4.18;100.00
51928;BME280;37953;52.806;18.270;2023-02-26T14:48:05;100832.63;;;4.17;100.00
51928;BME280;37953;52.806;18.270;2023-02-26T14:51:16;100838.59;;;4.16;100.00
51928;BME280;37953;52.806;18.270;2023-02-26T14:56:33;100849.59;;;4.12;100.00
51928;BME280;37953;52.806;18.270;2023-02-26T14:58:57;100848.72;;;4.11;100.00
51928;BME280;37953;52.806;18.270;2023-02-26T15:19:28;100876.63;;;4.00;100.00
51928;BME280;37953;52.806;18.270;2023-02-26T15:24:42;100875.69;;;3.98;100.00
51928;BME280;37953;52.806;18.270;2023-02-26T15:27:12;100879.91;;;3.96;100.00
51928;BME280;37953;52.806;18.270;2023-02-26T15:29:39;100884.16;;;3.96;100.00
51928;BME280;37953;52.806;18.270;2023-02-26T15:32:23;100890.13;;;3.95;100.00
51928;BME280;37953;52.806;18.270;2023-02-26T15:35:03;100890.97;;;3.94;99.54
51928;BME280;37953;52.806;18.270;2023-02-26T15:37:29;100893.47;;;3.92;100.00
51928;BME280;37953;52.806;18.270;2023-02-26T15:39:59;100895.16;;;3.92;100.00
51928;BME280;37953;52.806;18.270;2023-02-26T15:42:30;100897.72;;;3.92;99.94
51928;BME280;37953;52.806;18.270;2023-02-26T15:45:03;100903.69;;;3.91;100.00
51928;BME280;37953;52.806;18.270;2023-02-26T15:47:30;100900.25;;;3.90;100.00
51928;BME280;37953;52.806;18.270;2023-02-26T15:49:56;100901.03;;;3.89;100.00
51928;BME280;37953;52.806;18.270;2023-02-26T15:52:24;100906.19;;;3.89;100.00
51928;BME280;37953;52.806;18.270;2023-02-26T15:55:03;100915.59;;;3.88;100.00
51928;BME280;37953;52.806;18.270;2023-02-26T15:57:36;100919.03;;;3.89;100.00
51928;BME280;37953;52.806;18.270;2023-02-26T16:00:06;100919.81;;;3.86;99.80
51928;BME280;37953;52.806;18.270;2023-02-26T16:02:42;100919.75;;;3.85;99.91
51928;BME280;37953;52.806;18.270;2023-02-26T16:05:10;100923.13;;;3.84;99.21
51928;BME280;37953;52.806;18.270;2023-02-26T16:07:39;100932.47;;;3.82;99.86
51928;BME280;37953;52.806;18.270;2023-02-26T16:10:06;100935.84;;;3.81;99.28
51928;BME280;37953;52.806;18.270;2023-02-26T16:12:34;100935.81;;;3.79;99.62